sensor_id;sensor_type;location;lat;lon;timestamp;P1;durP1;ratioP1;P2;durP2;ratioP2
77722;SDS011;67811;42.656;23.394;2023-04-10T00:02:04;6.63;;;3.90;;
77722;SDS011;67811;42.656;23.394;2023-04-10T00:04:29;6.65;;;4.70;;
77722;SDS011;67811;42.656;23.394;2023-04-10T00:06:54;7.55;;;4.10;;
77722;SDS011;67811;42.656;23.394;2023-04-10T00:09:19;6.40;;;4.60;;
77722;SDS011;67811;42.656;23.394;2023-04-10T00:11:45;8.13;;;4.25;;
77722;SDS011;67811;42.656;23.394;2023-04-10T00:14:10;6.78;;;3.63;;
77722;SDS011;67811;42.656;23.394;2023-04-10T00:16:36;4.72;;;3.70;;
77722;SDS011;67811;42.656;23.394;2023-04-10T00:19:01;6.47;;;3.90;;
77722;SDS011;67811;42.656;23.394;2023-04-10T00:21:26;7.25;;;4.28;;
77722;SDS011;67811;42.656;23.394;2023-04-10T00:23:51;5.50;;;3.92;;
77722;SDS011;67811;42.656;23.394;2023-04-10T00:26:17;3.47;;;2.33;;
77722;SDS011;67811;42.656;23.394;2023-04-10T00:28:42;5.05;;;3.20;;
77722;SDS011;67811;42.656;23.394;2023-04-10T00:31:07;4.38;;;2.83;;
77722;SDS011;67811;42.656;23.394;2023-04-10T00:33:32;4.53;;;3.15;;
77722;SDS011;67811;42.656;23.394;2023-04-10T00:35:58;4.68;;;3.70;;
77722;SDS011;67811;42.656;23.394;2023-04-10T00:38:23;3.30;;;2.47;;
77722;SDS011;67811;42.656;23.394;2023-04-10T00:40:48;5.28;;;2.53;;
77722;SDS011;67811;42.656;23.394;2023-04-10T00:43:14;5.55;;;3.42;;
77722;SDS011;67811;42.656;23.394;2023-04-10T00:45:39;4.55;;;3.58;;
77722;SDS011;67811;42.656;23.394;2023-04-10T00:48:04;4.93;;;3.60;;
77722;SDS011;67811;42.656;23.394;2023-04-10T00:50:30;4.43;;;2.38;;
77722;SDS011;67811;42.656;23.394;2023-04-10T00:52:55;4.95;;;3.33;;
77722;SDS011;67811;42.656;23.394;2023-04-10T00:55:22;4.55;;;2.90;;
77722;SDS011;67811;42.656;23.394;2023-04-10T00:57:48;7.25;;;4.15;;
77722;SDS011;67811;42.656;23.394;2023-04-10T01:00:14;6.63;;;4.03;;
77722;SDS011;67811;42.656;23.394;2023-04-10T01:02:40;6.78;;;3.90;;
77722;SDS011;67811;42.656;23.394;2023-04-10T01:05:06;5.07;;;3.20;;
77722;SDS011;67811;42.656;23.394;2023-04-10T01:12:52;8.45;;;4.35;;
77722;SDS011;67811;42.656;23.394;2023-04-10T01:15:22;7.10;;;3.63;;
77722;SDS011;67811;42.656;23.394;2023-04-10T01:18:00;6.20;;;4.10;;
77722;SDS011;67811;42.656;23.394;2023-04-10T01:20:33;6.50;;;3.70;;
77722;SDS011;67811;42.656;23.394;2023-04-10T01:25:58;8.48;;;4.63;;
77722;SDS011;67811;42.656;23.394;2023-04-10T01:28:48;7.95;;;4.60;;
77722;SDS011;67811;42.656;23.394;2023-04-10T01:31:20;8.98;;;4.72;;
77722;SDS011;67811;42.656;23.394;2023-04-10T01:33:59;8.65;;;4.40;;
77722;SDS011;67811;42.656;23.394;2023-04-10T01:36:31;7.18;;;4.38;;
77722;SDS011;67811;42.656;23.394;2023-04-10T01:39:00;6.30;;;3.92;;
77722;SDS011;67811;42.656;23.394;2023-04-10T01:41:27;6.75;;;3.30;;
77722;SDS011;67811;42.656;23.394;2023-04-10T01:43:55;5.18;;;3.67;;
77722;SDS011;67811;42.656;23.394;2023-04-10T01:46:22;5.80;;;3.55;;
77722;SDS011;67811;42.656;23.394;2023-04-10T01:48:48;7.38;;;4.30;;
77722;SDS011;67811;42.656;23.394;2023-04-10T01:51:16;5.90;;;3.40;;
77722;SDS011;67811;42.656;23.394;2023-04-10T01:53:42;5.40;;;3.30;;
77722;SDS011;67811;42.656;23.394;2023-04-10T01:56:09;7.13;;;3.75;;
77722;SDS011;67811;42.656;23.394;2023-04-10T01:58:35;5.50;;;3.65;;
77722;SDS011;67811;42.656;23.394;2023-04-10T02:01:00;6.03;;;3.85;;
77722;SDS011;67811;42.656;23.394;2023-04-10T02:03:26;5.78;;;4.07;;
77722;SDS011;67811;42.656;23.394;2023-04-10T02:06:06;5.05;;;4.13;;
77722;SDS011;67811;42.656;23.394;2023-04-10T02:08:50;7.82;;;3.90;;
77722;SDS011;67811;42.656;23.394;2023-04-10T02:13:59;10.63;;;4.03;;
77722;SDS011;67811;42.656;23.394;2023-04-10T02:16:28;7.40;;;4.15;;
77722;SDS011;67811;42.656;23.394;2023-04-10T02:18:56;4.72;;;3.53;;
77722;SDS011;67811;42.656;23.394;2023-04-10T02:21:24;5.22;;;3.28;;
77722;SDS011;67811;42.656;23.394;2023-04-10T02:23:49;8.40;;;4.10;;
77722;SDS011;67811;42.656;23.394;2023-04-10T02:26:15;4.35;;;3.38;;
77722;SDS011;67811;42.656;23.394;2023-04-10T02:28:40;5.05;;;3.53;;
77722;SDS011;67811;42.656;23.394;2023-04-10T02:31:06;5.57;;;2.80;;
77722;SDS011;67811;42.656;23.394;2023-04-10T02:33:31;4.68;;;3.67;;
77722;SDS011;67811;42.656;23.394;2023-04-10T02:35:56;5.95;;;3.78;;
77722;SDS011;67811;42.656;23.394;2023-04-10T02:38:22;6.32;;;3.60;;
77722;SDS011;67811;42.656;23.394;2023-04-10T02:40:47;7.32;;;3.80;;
77722;SDS011;67811;42.656;23.394;2023-04-10T02:43:12;5.20;;;3.88;;
77722;SDS011;67811;42.656;23.394;2023-04-10T02:45:38;6.47;;;4.68;;
77722;SDS011;67811;42.656;23.394;2023-04-10T02:48:06;6.30;;;4.32;;
77722;SDS011;67811;42.656;23.394;2023-04-10T02:50:32;4.70;;;3.53;;
77722;SDS011;67811;42.656;23.394;2023-04-10T02:52:57;6.78;;;3.50;;
77722;SDS011;67811;42.656;23.394;2023-04-10T02:55:22;5.50;;;3.58;;
77722;SDS011;67811;42.656;23.394;2023-04-10T02:57:47;6.43;;;3.13;;
77722;SDS011;67811;42.656;23.394;2023-04-10T03:00:13;6.93;;;3.85;;
77722;SDS011;67811;42.656;23.394;2023-04-10T03:02:39;6.22;;;3.90;;
77722;SDS011;67811;42.656;23.394;2023-04-10T03:05:04;9.88;;;5.13;;
77722;SDS011;67811;42.656;23.394;2023-04-10T03:07:30;9.60;;;4.95;;
77722;SDS011;67811;42.656;23.394;2023-04-10T03:09:55;8.77;;;5.72;;
77722;SDS011;67811;42.656;23.394;2023-04-10T03:12:20;9.43;;;5.30;;
77722;SDS011;67811;42.656;23.394;2023-04-10T03:14:45;11.45;;;5.85;;
77722;SDS011;67811;42.656;23.394;2023-04-10T03:17:11;9.10;;;5.30;;
77722;SDS011;67811;42.656;23.394;2023-04-10T03:19:36;7.97;;;6.15;;
77722;SDS011;67811;42.656;23.394;2023-04-10T03:22:01;8.35;;;4.78;;
77722;SDS011;67811;42.656;23.394;2023-04-10T03:24:26;7.32;;;4.60;;
77722;SDS011;67811;42.656;23.394;2023-04-10T03:26:52;6.88;;;3.95;;
77722;SDS011;67811;42.656;23.394;2023-04-10T03:29:17;10.02;;;4.90;;
77722;SDS011;67811;42.656;23.394;2023-04-10T03:31:42;9.70;;;4.90;;
77722;SDS011;67811;42.656;23.394;2023-04-10T03:34:07;8.55;;;4.65;;
77722;SDS011;67811;42.656;23.394;2023-04-10T03:36:33;7.70;;;4.57;;
77722;SDS011;67811;42.656;23.394;2023-04-10T03:38:58;8.30;;;4.50;;
77722;SDS011;67811;42.656;23.394;2023-04-10T03:41:23;9.13;;;4.60;;
77722;SDS011;67811;42.656;23.394;2023-04-10T03:43:49;10.57;;;5.53;;
77722;SDS011;67811;42.656;23.394;2023-04-10T03:46:14;10.88;;;5.13;;
77722;SDS011;67811;42.656;23.394;2023-04-10T03:48:39;9.70;;;5.45;;
77722;SDS011;67811;42.656;23.394;2023-04-10T03:51:05;11.07;;;5.88;;
77722;SDS011;67811;42.656;23.394;2023-04-10T03:53:30;11.00;;;6.00;;
77722;SDS011;67811;42.656;23.394;2023-04-10T03:55:56;7.95;;;5.82;;
77722;SDS011;67811;42.656;23.394;2023-04-10T03:58:21;8.57;;;5.10;;
77722;SDS011;67811;42.656;23.394;2023-04-10T04:00:46;9.15;;;6.20;;
77722;SDS011;67811;42.656;23.394;2023-04-10T04:03:12;14.00;;;7.18;;
77722;SDS011;67811;42.656;23.394;2023-04-10T04:05:37;12.38;;;7.10;;
77722;SDS011;67811;42.656;23.394;2023-04-10T04:08:02;10.93;;;6.28;;
77722;SDS011;67811;42.656;23.394;2023-04-10T04:10:28;12.98;;;7.90;;
77722;SDS011;67811;42.656;23.394;2023-04-10T04:12:53;11.88;;;6.75;;
77722;SDS011;67811;42.656;23.394;2023-04-10T04:15:18;13.15;;;6.88;;
77722;SDS011;67811;42.656;23.394;2023-04-10T04:17:43;10.50;;;5.88;;
77722;SDS011;67811;42.656;23.394;2023-04-10T04:20:09;11.00;;;7.10;;
77722;SDS011;67811;42.656;23.394;2023-04-10T04:22:34;12.20;;;6.35;;
77722;SDS011;67811;42.656;23.394;2023-04-10T04:24:59;11.63;;;6.72;;
77722;SDS011;67811;42.656;23.394;2023-04-10T04:27:25;18.95;;;7.25;;
77722;SDS011;67811;42.656;23.394;2023-04-10T04:29:50;17.30;;;10.63;;
77722;SDS011;67811;42.656;23.394;2023-04-10T04:32:15;16.80;;;11.93;;
77722;SDS011;67811;42.656;23.394;2023-04-10T04:34:41;21.10;;;12.10;;
77722;SDS011;67811;42.656;23.394;2023-04-10T04:37:06;17.52;;;10.32;;
77722;SDS011;67811;42.656;23.394;2023-04-10T04:39:31;13.43;;;8.25;;
77722;SDS011;67811;42.656;23.394;2023-04-10T04:41:57;13.18;;;7.38;;
77722;SDS011;67811;42.656;23.394;2023-04-10T04:44:22;14.88;;;7.45;;
77722;SDS011;67811;42.656;23.394;2023-04-10T04:46:47;12.18;;;7.40;;
77722;SDS011;67811;42.656;23.394;2023-04-10T04:49:12;10.52;;;7.63;;
77722;SDS011;67811;42.656;23.394;2023-04-10T04:51:38;14.55;;;5.63;;
77722;SDS011;67811;42.656;23.394;2023-04-10T04:54:03;11.07;;;6.68;;
77722;SDS011;67811;42.656;23.394;2023-04-10T04:56:29;10.23;;;7.03;;
77722;SDS011;67811;42.656;23.394;2023-04-10T04:58:54;8.02;;;6.65;;
77722;SDS011;67811;42.656;23.394;2023-04-10T05:01:19;11.95;;;6.88;;
77722;SDS011;67811;42.656;23.394;2023-04-10T05:03:44;10.57;;;7.47;;
77722;SDS011;67811;42.656;23.394;2023-04-10T05:06:10;12.35;;;7.05;;
77722;SDS011;67811;42.656;23.394;2023-04-10T05:08:35;13.75;;;7.00;;
77722;SDS011;67811;42.656;23.394;2023-04-10T05:11:00;14.73;;;7.13;;
77722;SDS011;67811;42.656;23.394;2023-04-10T05:13:26;12.98;;;6.63;;
77722;SDS011;67811;42.656;23.394;2023-04-10T05:15:51;13.13;;;7.25;;
77722;SDS011;67811;42.656;23.394;2023-04-10T05:18:16;13.23;;;7.10;;
77722;SDS011;67811;42.656;23.394;2023-04-10T05:20:41;10.38;;;7.53;;
77722;SDS011;67811;42.656;23.394;2023-04-10T05:23:07;15.85;;;10.30;;
77722;SDS011;67811;42.656;23.394;2023-04-10T05:25:32;11.68;;;5.80;;
77722;SDS011;67811;42.656;23.394;2023-04-10T05:27:57;10.95;;;8.07;;
77722;SDS011;67811;42.656;23.394;2023-04-10T05:30:23;11.38;;;6.90;;
77722;SDS011;67811;42.656;23.394;2023-04-10T05:32:48;15.15;;;7.75;;
77722;SDS011;67811;42.656;23.394;2023-04-10T05:35:13;9.63;;;6.07;;
77722;SDS011;67811;42.656;23.394;2023-04-10T05:37:38;9.73;;;5.13;;
77722;SDS011;67811;42.656;23.394;2023-04-10T05:40:04;8.25;;;5.55;;
77722;SDS011;67811;42.656;23.394;2023-04-10T05:42:30;11.65;;;6.22;;
77722;SDS011;67811;42.656;23.394;2023-04-10T05:44:55;7.80;;;4.90;;
77722;SDS011;67811;42.656;23.394;2023-04-10T05:47:20;7.47;;;5.68;;
77722;SDS011;67811;42.656;23.394;2023-04-10T05:49:46;6.97;;;4.90;;
77722;SDS011;67811;42.656;23.394;2023-04-10T05:52:11;7.50;;;5.47;;
77722;SDS011;67811;42.656;23.394;2023-04-10T05:54:36;9.68;;;4.63;;
77722;SDS011;67811;42.656;23.394;2023-04-10T05:57:02;8.25;;;5.63;;
77722;SDS011;67811;42.656;23.394;2023-04-10T05:59:27;9.10;;;4.82;;
77722;SDS011;67811;42.656;23.394;2023-04-10T06:01:52;9.20;;;5.60;;
77722;SDS011;67811;42.656;23.394;2023-04-10T06:04:18;7.55;;;4.72;;
77722;SDS011;67811;42.656;23.394;2023-04-10T06:06:43;9.75;;;6.57;;
77722;SDS011;67811;42.656;23.394;2023-04-10T06:09:08;16.67;;;6.10;;
77722;SDS011;67811;42.656;23.394;2023-04-10T06:11:33;11.25;;;5.82;;
77722;SDS011;67811;42.656;23.394;2023-04-10T06:13:59;10.30;;;5.53;;
77722;SDS011;67811;42.656;23.394;2023-04-10T06:16:25;10.45;;;6.25;;
77722;SDS011;67811;42.656;23.394;2023-04-10T06:18:50;8.75;;;5.13;;
77722;SDS011;67811;42.656;23.394;2023-04-10T06:21:15;9.32;;;5.13;;
77722;SDS011;67811;42.656;23.394;2023-04-10T06:23:40;10.80;;;6.22;;
77722;SDS011;67811;42.656;23.394;2023-04-10T06:26:06;11.95;;;6.40;;
77722;SDS011;67811;42.656;23.394;2023-04-10T06:28:31;11.55;;;6.72;;
77722;SDS011;67811;42.656;23.394;2023-04-10T06:30:56;12.25;;;6.75;;
77722;SDS011;67811;42.656;23.394;2023-04-10T06:33:22;10.65;;;6.32;;
77722;SDS011;67811;42.656;23.394;2023-04-10T06:35:47;8.88;;;6.03;;
77722;SDS011;67811;42.656;23.394;2023-04-10T06:38:12;9.63;;;5.30;;
77722;SDS011;67811;42.656;23.394;2023-04-10T06:40:38;10.23;;;6.15;;
77722;SDS011;67811;42.656;23.394;2023-04-10T06:43:03;11.05;;;7.25;;
77722;SDS011;67811;42.656;23.394;2023-04-10T06:45:28;12.32;;;6.72;;
77722;SDS011;67811;42.656;23.394;2023-04-10T06:47:53;9.52;;;6.03;;
77722;SDS011;67811;42.656;23.394;2023-04-10T06:50:19;10.50;;;6.78;;
77722;SDS011;67811;42.656;23.394;2023-04-10T06:52:44;11.82;;;7.10;;
77722;SDS011;67811;42.656;23.394;2023-04-10T06:55:10;10.63;;;6.50;;
77722;SDS011;67811;42.656;23.394;2023-04-10T06:57:35;12.10;;;6.78;;
77722;SDS011;67811;42.656;23.394;2023-04-10T07:00:00;11.07;;;6.40;;
77722;SDS011;67811;42.656;23.394;2023-04-10T07:02:26;12.43;;;7.22;;
77722;SDS011;67811;42.656;23.394;2023-04-10T07:04:51;12.43;;;6.53;;
77722;SDS011;67811;42.656;23.394;2023-04-10T07:07:16;13.68;;;8.48;;
77722;SDS011;67811;42.656;23.394;2023-04-10T07:09:42;11.48;;;6.60;;
77722;SDS011;67811;42.656;23.394;2023-04-10T07:12:07;13.85;;;8.10;;
77722;SDS011;67811;42.656;23.394;2023-04-10T07:14:32;11.60;;;7.30;;
77722;SDS011;67811;42.656;23.394;2023-04-10T07:16:58;13.68;;;8.00;;
77722;SDS011;67811;42.656;23.394;2023-04-10T07:19:23;13.40;;;7.22;;
77722;SDS011;67811;42.656;23.394;2023-04-10T07:21:48;16.20;;;7.43;;
77722;SDS011;67811;42.656;23.394;2023-04-10T07:24:17;11.93;;;7.22;;
77722;SDS011;67811;42.656;23.394;2023-04-10T07:26:45;12.38;;;7.70;;
77722;SDS011;67811;42.656;23.394;2023-04-10T07:29:10;12.23;;;7.50;;
77722;SDS011;67811;42.656;23.394;2023-04-10T07:31:36;13.73;;;7.60;;
77722;SDS011;67811;42.656;23.394;2023-04-10T07:34:02;13.45;;;7.25;;
77722;SDS011;67811;42.656;23.394;2023-04-10T07:36:27;10.55;;;6.47;;
77722;SDS011;67811;42.656;23.394;2023-04-10T07:38:53;9.07;;;5.93;;
77722;SDS011;67811;42.656;23.394;2023-04-10T07:41:19;14.00;;;8.45;;
77722;SDS011;67811;42.656;23.394;2023-04-10T07:43:44;15.35;;;9.05;;
77722;SDS011;67811;42.656;23.394;2023-04-10T07:46:10;15.98;;;8.55;;
77722;SDS011;67811;42.656;23.394;2023-04-10T07:48:35;14.20;;;8.02;;
77722;SDS011;67811;42.656;23.394;2023-04-10T07:51:01;15.82;;;9.40;;
77722;SDS011;67811;42.656;23.394;2023-04-10T07:53:26;11.77;;;8.20;;
77722;SDS011;67811;42.656;23.394;2023-04-10T07:55:51;13.35;;;7.35;;
77722;SDS011;67811;42.656;23.394;2023-04-10T07:58:17;15.68;;;8.30;;
77722;SDS011;67811;42.656;23.394;2023-04-10T08:00:42;17.60;;;9.95;;
77722;SDS011;67811;42.656;23.394;2023-04-10T08:03:07;21.20;;;9.45;;
77722;SDS011;67811;42.656;23.394;2023-04-10T08:05:33;16.90;;;8.65;;
77722;SDS011;67811;42.656;23.394;2023-04-10T08:07:58;14.20;;;8.15;;
77722;SDS011;67811;42.656;23.394;2023-04-10T08:10:24;15.23;;;8.40;;
77722;SDS011;67811;42.656;23.394;2023-04-10T08:12:49;12.88;;;8.40;;
77722;SDS011;67811;42.656;23.394;2023-04-10T08:15:14;13.43;;;7.32;;
77722;SDS011;67811;42.656;23.394;2023-04-10T08:17:42;13.13;;;7.82;;
77722;SDS011;67811;42.656;23.394;2023-04-10T08:20:07;9.88;;;6.25;;
77722;SDS011;67811;42.656;23.394;2023-04-10T08:22:34;12.25;;;7.40;;
77722;SDS011;67811;42.656;23.394;2023-04-10T08:24:59;13.45;;;8.63;;
77722;SDS011;67811;42.656;23.394;2023-04-10T08:27:24;13.73;;;8.73;;
77722;SDS011;67811;42.656;23.394;2023-04-10T08:29:50;13.73;;;7.80;;
77722;SDS011;67811;42.656;23.394;2023-04-10T08:32:15;13.13;;;9.00;;
77722;SDS011;67811;42.656;23.394;2023-04-10T08:34:40;14.00;;;8.48;;
77722;SDS011;67811;42.656;23.394;2023-04-10T08:37:06;13.15;;;8.00;;
77722;SDS011;67811;42.656;23.394;2023-04-10T08:39:35;15.68;;;9.07;;
77722;SDS011;67811;42.656;23.394;2023-04-10T08:42:00;12.95;;;7.88;;
77722;SDS011;67811;42.656;23.394;2023-04-10T08:44:26;12.75;;;8.13;;
77722;SDS011;67811;42.656;23.394;2023-04-10T08:46:52;12.95;;;7.88;;
77722;SDS011;67811;42.656;23.394;2023-04-10T08:51:54;12.00;;;7.00;;
77722;SDS011;67811;42.656;23.394;2023-04-10T08:54:24;11.23;;;6.70;;
77722;SDS011;67811;42.656;23.394;2023-04-10T08:56:57;12.93;;;7.65;;
77722;SDS011;67811;42.656;23.394;2023-04-10T08:59:22;12.57;;;7.35;;
77722;SDS011;67811;42.656;23.394;2023-04-10T09:01:48;11.75;;;7.05;;
77722;SDS011;67811;42.656;23.394;2023-04-10T09:04:13;12.43;;;7.43;;
77722;SDS011;67811;42.656;23.394;2023-04-10T09:06:39;15.73;;;7.35;;
77722;SDS011;67811;42.656;23.394;2023-04-10T09:09:07;10.80;;;6.90;;
77722;SDS011;67811;42.656;23.394;2023-04-10T09:14:31;12.32;;;8.80;;
77722;SDS011;67811;42.656;23.394;2023-04-10T09:17:16;8.70;;;6.18;;
77722;SDS011;67811;42.656;23.394;2023-04-10T09:19:44;11.20;;;7.88;;
77722;SDS011;67811;42.656;23.394;2023-04-10T09:22:13;11.77;;;6.47;;
77722;SDS011;67811;42.656;23.394;2023-04-10T09:24:39;10.05;;;6.75;;
77722;SDS011;67811;42.656;23.394;2023-04-10T09:27:07;11.23;;;7.45;;
77722;SDS011;67811;42.656;23.394;2023-04-10T09:29:42;9.02;;;6.22;;
77722;SDS011;67811;42.656;23.394;2023-04-10T09:32:09;9.90;;;6.97;;
77722;SDS011;67811;42.656;23.394;2023-04-10T09:34:50;10.27;;;6.80;;
77722;SDS011;67811;42.656;23.394;2023-04-10T09:37:16;9.25;;;7.15;;
77722;SDS011;67811;42.656;23.394;2023-04-10T09:39:42;10.32;;;7.57;;
77722;SDS011;67811;42.656;23.394;2023-04-10T09:42:07;13.32;;;6.95;;
77722;SDS011;67811;42.656;23.394;2023-04-10T09:44:34;9.50;;;6.75;;
77722;SDS011;67811;42.656;23.394;2023-04-10T09:49:45;16.00;;;7.38;;
77722;SDS011;67811;42.656;23.394;2023-04-10T09:52:21;9.38;;;5.82;;
77722;SDS011;67811;42.656;23.394;2023-04-10T09:54:48;13.73;;;8.00;;
77722;SDS011;67811;42.656;23.394;2023-04-10T09:57:16;12.07;;;8.07;;
77722;SDS011;67811;42.656;23.394;2023-04-10T09:59:42;7.88;;;6.05;;
77722;SDS011;67811;42.656;23.394;2023-04-10T10:02:11;14.82;;;8.35;;
77722;SDS011;67811;42.656;23.394;2023-04-10T10:04:38;10.60;;;7.35;;
77722;SDS011;67811;42.656;23.394;2023-04-10T10:07:05;9.57;;;6.10;;
77722;SDS011;67811;42.656;23.394;2023-04-10T10:09:31;9.82;;;6.18;;
77722;SDS011;67811;42.656;23.394;2023-04-10T10:11:56;10.82;;;6.57;;
77722;SDS011;67811;42.656;23.394;2023-04-10T10:14:22;9.85;;;6.00;;
77722;SDS011;67811;42.656;23.394;2023-04-10T10:16:51;11.57;;;6.68;;
77722;SDS011;67811;42.656;23.394;2023-04-10T10:19:28;8.50;;;5.70;;
77722;SDS011;67811;42.656;23.394;2023-04-10T10:21:57;10.57;;;6.35;;
77722;SDS011;67811;42.656;23.394;2023-04-10T10:24:24;8.23;;;5.43;;
77722;SDS011;67811;42.656;23.394;2023-04-10T10:26:52;11.57;;;5.53;;
77722;SDS011;67811;42.656;23.394;2023-04-10T10:29:19;9.13;;;5.78;;
77722;SDS011;67811;42.656;23.394;2023-04-10T10:31:47;10.30;;;7.22;;
77722;SDS011;67811;42.656;23.394;2023-04-10T10:34:14;9.70;;;6.53;;
77722;SDS011;67811;42.656;23.394;2023-04-10T10:36:39;7.25;;;4.45;;
77722;SDS011;67811;42.656;23.394;2023-04-10T10:47:38;8.30;;;5.93;;
77722;SDS011;67811;42.656;23.394;2023-04-10T10:50:06;9.00;;;6.15;;
77722;SDS011;67811;42.656;23.394;2023-04-10T10:57:53;11.00;;;7.00;;
77722;SDS011;67811;42.656;23.394;2023-04-10T11:00:22;8.60;;;5.28;;
77722;SDS011;67811;42.656;23.394;2023-04-10T11:03:25;9.70;;;5.70;;
77722;SDS011;67811;42.656;23.394;2023-04-10T11:05:51;9.40;;;7.20;;
77722;SDS011;67811;42.656;23.394;2023-04-10T11:11:04;11.10;;;7.40;;
77722;SDS011;67811;42.656;23.394;2023-04-10T11:13:30;10.98;;;7.07;;
77722;SDS011;67811;42.656;23.394;2023-04-10T11:15:56;10.32;;;8.05;;
77722;SDS011;67811;42.656;23.394;2023-04-10T11:21:11;9.30;;;5.78;;
77722;SDS011;67811;42.656;23.394;2023-04-10T11:31:37;10.40;;;5.70;;
77722;SDS011;67811;42.656;23.394;2023-04-10T11:34:06;13.25;;;7.63;;
77722;SDS011;67811;42.656;23.394;2023-04-10T11:36:34;10.07;;;7.28;;
77722;SDS011;67811;42.656;23.394;2023-04-10T11:39:06;8.60;;;6.22;;
77722;SDS011;67811;42.656;23.394;2023-04-10T11:41:42;9.48;;;6.20;;
77722;SDS011;67811;42.656;23.394;2023-04-10T11:46:58;8.80;;;5.63;;
77722;SDS011;67811;42.656;23.394;2023-04-10T11:49:24;10.38;;;6.75;;
77722;SDS011;67811;42.656;23.394;2023-04-10T11:51:51;10.75;;;5.78;;
77722;SDS011;67811;42.656;23.394;2023-04-10T11:54:18;9.25;;;5.95;;
77722;SDS011;67811;42.656;23.394;2023-04-10T11:56:58;8.55;;;5.30;;
77722;SDS011;67811;42.656;23.394;2023-04-10T11:59:28;8.57;;;5.57;;
77722;SDS011;67811;42.656;23.394;2023-04-10T12:04:36;11.68;;;6.20;;
77722;SDS011;67811;42.656;23.394;2023-04-10T12:07:01;10.85;;;6.30;;
77722;SDS011;67811;42.656;23.394;2023-04-10T12:09:27;10.02;;;7.03;;
77722;SDS011;67811;42.656;23.394;2023-04-10T12:11:54;10.23;;;5.80;;
77722;SDS011;67811;42.656;23.394;2023-04-10T12:14:28;10.48;;;6.57;;
77722;SDS011;67811;42.656;23.394;2023-04-10T12:16:58;10.40;;;6.35;;
77722;SDS011;67811;42.656;23.394;2023-04-10T12:19:24;10.35;;;6.90;;
77722;SDS011;67811;42.656;23.394;2023-04-10T12:21:50;11.35;;;6.97;;
77722;SDS011;67811;42.656;23.394;2023-04-10T12:29:41;10.95;;;6.45;;
77722;SDS011;67811;42.656;23.394;2023-04-10T12:32:08;10.10;;;6.90;;
77722;SDS011;67811;42.656;23.394;2023-04-10T12:34:34;9.52;;;6.40;;
77722;SDS011;67811;42.656;23.394;2023-04-10T12:37:00;7.80;;;6.95;;
77722;SDS011;67811;42.656;23.394;2023-04-10T12:39:26;8.15;;;5.00;;
77722;SDS011;67811;42.656;23.394;2023-04-10T12:41:51;7.65;;;4.60;;
77722;SDS011;67811;42.656;23.394;2023-04-10T12:44:16;5.25;;;3.38;;
77722;SDS011;67811;42.656;23.394;2023-04-10T12:46:42;6.63;;;3.55;;
77722;SDS011;67811;42.656;23.394;2023-04-10T12:49:08;6.90;;;4.00;;
77722;SDS011;67811;42.656;23.394;2023-04-10T12:54:07;7.63;;;4.78;;
77722;SDS011;67811;42.656;23.394;2023-04-10T12:56:42;6.95;;;5.40;;
77722;SDS011;67811;42.656;23.394;2023-04-10T12:59:08;11.52;;;6.82;;
77722;SDS011;67811;42.656;23.394;2023-04-10T13:01:36;8.32;;;6.25;;
77722;SDS011;67811;42.656;23.394;2023-04-10T13:04:02;8.35;;;5.93;;
77722;SDS011;67811;42.656;23.394;2023-04-10T13:06:27;7.18;;;5.22;;
77722;SDS011;67811;42.656;23.394;2023-04-10T13:08:52;9.23;;;5.78;;
77722;SDS011;67811;42.656;23.394;2023-04-10T13:11:18;9.45;;;6.25;;
77722;SDS011;67811;42.656;23.394;2023-04-10T13:13:43;9.13;;;6.10;;
77722;SDS011;67811;42.656;23.394;2023-04-10T13:16:08;13.40;;;7.22;;
77722;SDS011;67811;42.656;23.394;2023-04-10T13:18:33;10.20;;;6.38;;
77722;SDS011;67811;42.656;23.394;2023-04-10T13:20:59;7.05;;;5.43;;
77722;SDS011;67811;42.656;23.394;2023-04-10T13:23:24;14.52;;;7.38;;
77722;SDS011;67811;42.656;23.394;2023-04-10T13:25:49;10.82;;;6.25;;
77722;SDS011;67811;42.656;23.394;2023-04-10T13:28:14;8.23;;;5.93;;
77722;SDS011;67811;42.656;23.394;2023-04-10T13:30:40;7.25;;;5.78;;
77722;SDS011;67811;42.656;23.394;2023-04-10T13:33:06;8.27;;;6.05;;
77722;SDS011;67811;42.656;23.394;2023-04-10T13:35:32;13.65;;;5.78;;
77722;SDS011;67811;42.656;23.394;2023-04-10T13:37:58;8.27;;;5.88;;
77722;SDS011;67811;42.656;23.394;2023-04-10T13:40:24;12.13;;;5.57;;
77722;SDS011;67811;42.656;23.394;2023-04-10T13:42:49;8.77;;;6.38;;
77722;SDS011;67811;42.656;23.394;2023-04-10T13:45:15;8.38;;;6.13;;
77722;SDS011;67811;42.656;23.394;2023-04-10T13:47:40;9.63;;;6.75;;
77722;SDS011;67811;42.656;23.394;2023-04-10T13:50:06;9.23;;;6.75;;
77722;SDS011;67811;42.656;23.394;2023-04-10T13:52:32;10.27;;;6.35;;
77722;SDS011;67811;42.656;23.394;2023-04-10T13:54:57;9.27;;;7.53;;
77722;SDS011;67811;42.656;23.394;2023-04-10T13:57:22;11.40;;;7.57;;
77722;SDS011;67811;42.656;23.394;2023-04-10T13:59:48;14.82;;;7.85;;
77722;SDS011;67811;42.656;23.394;2023-04-10T14:02:13;12.32;;;7.43;;
77722;SDS011;67811;42.656;23.394;2023-04-10T14:04:38;11.40;;;7.75;;
77722;SDS011;67811;42.656;23.394;2023-04-10T14:07:03;8.93;;;7.25;;
77722;SDS011;67811;42.656;23.394;2023-04-10T14:09:29;11.23;;;8.63;;
77722;SDS011;67811;42.656;23.394;2023-04-10T14:11:54;11.10;;;7.45;;
77722;SDS011;67811;42.656;23.394;2023-04-10T14:14:20;11.07;;;7.80;;
77722;SDS011;67811;42.656;23.394;2023-04-10T14:16:45;11.43;;;7.82;;
77722;SDS011;67811;42.656;23.394;2023-04-10T14:19:11;10.63;;;7.28;;
77722;SDS011;67811;42.656;23.394;2023-04-10T14:21:36;8.00;;;6.20;;
77722;SDS011;67811;42.656;23.394;2023-04-10T14:24:01;8.23;;;6.18;;
77722;SDS011;67811;42.656;23.394;2023-04-10T14:26:27;6.53;;;4.30;;
77722;SDS011;67811;42.656;23.394;2023-04-10T14:28:52;8.00;;;4.53;;
77722;SDS011;67811;42.656;23.394;2023-04-10T14:31:18;6.65;;;3.83;;
77722;SDS011;67811;42.656;23.394;2023-04-10T14:33:43;8.82;;;4.60;;
77722;SDS011;67811;42.656;23.394;2023-04-10T14:36:09;6.07;;;4.45;;
77722;SDS011;67811;42.656;23.394;2023-04-10T14:38:34;10.55;;;5.35;;
77722;SDS011;67811;42.656;23.394;2023-04-10T14:40:59;7.28;;;5.45;;
77722;SDS011;67811;42.656;23.394;2023-04-10T14:43:24;6.38;;;5.35;;
77722;SDS011;67811;42.656;23.394;2023-04-10T14:45:50;8.10;;;5.10;;
77722;SDS011;67811;42.656;23.394;2023-04-10T14:48:15;7.13;;;4.75;;
77722;SDS011;67811;42.656;23.394;2023-04-10T14:50:40;7.63;;;5.28;;
77722;SDS011;67811;42.656;23.394;2023-04-10T14:53:06;9.95;;;4.75;;
77722;SDS011;67811;42.656;23.394;2023-04-10T14:55:31;6.80;;;5.03;;
77722;SDS011;67811;42.656;23.394;2023-04-10T14:57:56;6.97;;;4.50;;
77722;SDS011;67811;42.656;23.394;2023-04-10T15:00:22;7.65;;;4.95;;
77722;SDS011;67811;42.656;23.394;2023-04-10T15:02:47;6.75;;;4.35;;
77722;SDS011;67811;42.656;23.394;2023-04-10T15:05:12;6.82;;;4.85;;
77722;SDS011;67811;42.656;23.394;2023-04-10T15:07:38;5.88;;;4.40;;
77722;SDS011;67811;42.656;23.394;2023-04-10T15:10:03;8.40;;;4.88;;
77722;SDS011;67811;42.656;23.394;2023-04-10T15:12:29;6.80;;;4.82;;
77722;SDS011;67811;42.656;23.394;2023-04-10T15:14:54;8.75;;;6.97;;
77722;SDS011;67811;42.656;23.394;2023-04-10T15:17:20;10.35;;;4.78;;
77722;SDS011;67811;42.656;23.394;2023-04-10T15:19:46;7.72;;;5.10;;
77722;SDS011;67811;42.656;23.394;2023-04-10T15:22:11;8.85;;;5.90;;
77722;SDS011;67811;42.656;23.394;2023-04-10T15:24:36;7.63;;;4.97;;